Time,TemperatureF,DewpointF,PressureIn,WindDirection,WindDirectionDegrees,WindSpeedMPH,WindSpeedGustMPH,Humidity,HourlyPrecipIn,Conditions,Clouds,dailyrainin,SoftwareType,DateUTC
2013-08-31 00:02:00,72.8,71.0,29.88,SW,233,0.0,0.0,94,0.00,,---,0.00,VWS V14.00,2013-08-31 05:02:00,
2013-08-31 00:07:00,72.8,71.3,29.88,SW,233,0.0,0.0,95,0.00,,---,0.00,VWS V14.00,2013-08-31 05:07:00,
2013-08-31 00:12:00,72.5,70.7,29.88,SW,233,0.0,0.0,94,0.00,,---,0.00,VWS V14.00,2013-08-31 05:12:00,
2013-08-31 00:23:00,72.3,70.8,29.88,SW,233,0.0,0.0,95,0.00,,---,0.00,VWS V14.00,2013-08-31 05:23:00,
2013-08-31 00:28:00,72.6,71.4,29.88,SW,233,0.0,0.0,96,0.00,,---,0.00,VWS V14.00,2013-08-31 05:28:00,
2013-08-31 00:33:00,73.1,71.9,29.88,SW,233,0.0,0.0,96,0.00,,---,0.00,VWS V14.00,2013-08-31 05:33:00,
2013-08-31 00:38:00,73.1,71.9,29.88,SW,233,0.0,0.0,96,0.00,,---,0.00,VWS V14.00,2013-08-31 05:38:00,
2013-08-31 00:43:00,72.9,71.4,29.88,SW,234,0.0,0.0,95,0.00,,---,0.00,VWS V14.00,2013-08-31 05:43:00,
2013-08-31 00:48:00,72.5,71.0,29.88,SW,233,0.0,0.0,95,0.00,,---,0.00,VWS V14.00,2013-08-31 05:48:00,
2013-08-31 00:53:00,72.4,70.9,29.88,SW,233,0.0,0.0,95,0.00,,---,0.00,VWS V14.00,2013-08-31 05:53:00,
2013-08-31 00:58:00,72.5,71.3,29.88,SW,233,0.0,0.0,96,0.00,,---,0.00,VWS V14.00,2013-08-31 05:58:00,
2013-08-31 01:04:00,72.3,70.8,29.88,SW,233,0.0,0.0,95,0.00,,---,0.00,VWS V14.00,2013-08-31 06:04:00,
2013-08-31 01:09:00,72.2,70.7,29.88,SW,233,0.0,0.0,95,0.00,,---,0.00,VWS V14.00,2013-08-31 06:09:00,
2013-08-31 01:14:00,72.4,71.2,29.88,SW,234,0.0,0.0,96,0.00,,---,0.00,VWS V14.00,2013-08-31 06:14:00,
2013-08-31 01:19:00,72.6,71.4,29.88,SW,233,0.0,0.0,96,0.00,,---,0.00,VWS V14.00,2013-08-31 06:19:00,
2013-08-31 01:24:00,72.9,71.7,29.88,SW,233,0.0,1.0,96,0.00,,---,0.00,VWS V14.00,2013-08-31 06:24:00,
2013-08-31 01:29:00,72.7,71.5,29.88,SW,233,0.0,0.0,96,0.00,,---,0.00,VWS V14.00,2013-08-31 06:29:00,
2013-08-31 01:34:00,72.5,71.3,29.88,SW,233,0.0,0.0,96,0.00,,---,0.00,VWS V14.00,2013-08-31 06:34:00,
2013-08-31 01:39:00,72.4,71.2,29.88,SW,233,0.0,0.0,96,0.00,,---,0.00,VWS V14.00,2013-08-31 06:39:00,
2013-08-31 01:44:00,72.1,70.9,29.88,SW,233,0.0,0.0,96,0.00,,---,0.00,VWS V14.00,2013-08-31 06:44:00,
2013-08-31 01:49:00,72.0,70.8,29.88,SW,233,0.0,0.0,96,0.00,,---,0.00,VWS V14.00,2013-08-31 06:49:00,
2013-08-31 01:54:00,71.9,70.7,29.88,SW,233,0.0,0.0,96,0.00,,---,0.00,VWS V14.00,2013-08-31 06:54:00,
2013-08-31 01:59:00,72.0,70.8,29.87,SW,233,0.0,0.0,96,0.00,,---,0.00,VWS V14.00,2013-08-31 06:59:00,
2013-08-31 02:04:00,72.5,71.6,29.87,SW,233,0.0,0.0,97,0.00,,---,0.00,VWS V14.00,2013-08-31 07:04:00,
2013-08-31 02:09:00,72.8,71.9,29.87,SW,233,0.0,0.0,97,0.00,,---,0.00,VWS V14.00,2013-08-31 07:09:00,
2013-08-31 02:14:00,72.8,71.6,29.87,SW,233,0.0,1.0,96,0.00,,---,0.00,VWS V14.00,2013-08-31 07:14:00,
2013-08-31 02:19:00,72.9,71.7,29.87,SW,233,0.0,0.0,96,0.00,,---,0.00,VWS V14.00,2013-08-31 07:19:00,
2013-08-31 02:24:00,72.8,71.6,29.87,SW,235,0.0,0.0,96,0.00,,---,0.00,VWS V14.00,2013-08-31 07:24:00,
2013-08-31 02:29:00,72.8,71.6,29.87,SW,235,0.0,1.0,96,0.00,,---,0.00,VWS V14.00,2013-08-31 07:29:00,
2013-08-31 02:34:00,72.8,71.6,29.87,WNW,297,0.0,1.0,96,0.00,,---,0.00,VWS V14.00,2013-08-31 07:34:00,
2013-08-31 02:39:00,72.7,71.2,29.87,WNW,296,0.0,0.0,95,0.00,,---,0.00,VWS V14.00,2013-08-31 07:39:00,
2013-08-31 02:44:00,72.6,71.1,29.88,WNW,297,0.0,0.0,95,0.00,,---,0.00,VWS V14.00,2013-08-31 07:44:00,
2013-08-31 02:49:00,72.6,71.1,29.88,WNW,297,0.0,0.0,95,0.00,,---,0.00,VWS V14.00,2013-08-31 07:49:00,
2013-08-31 02:54:00,72.0,70.2,29.88,WNW,295,0.0,0.0,94,0.00,,---,0.00,VWS V14.00,2013-08-31 07:54:00,
2013-08-31 02:59:00,72.0,70.8,29.87,WNW,295,0.0,0.0,96,0.00,,---,0.00,VWS V14.00,2013-08-31 07:59:00,
2013-08-31 03:04:00,72.0,70.5,29.87,WNW,295,0.0,0.0,95,0.00,,---,0.00,VWS V14.00,2013-08-31 08:04:00,
2013-08-31 03:09:00,71.9,70.4,29.87,WNW,295,0.0,0.0,95,0.00,,---,0.00,VWS V14.00,2013-08-31 08:09:00,
2013-08-31 03:14:00,71.8,70.6,29.88,WNW,295,0.0,0.0,96,0.00,,---,0.00,VWS V14.00,2013-08-31 08:14:00,
2013-08-31 03:19:00,71.6,70.1,29.87,WNW,295,0.0,0.0,95,0.00,,---,0.00,VWS V14.00,2013-08-31 08:19:00,
2013-08-31 03:24:00,71.1,69.6,29.87,WNW,295,0.0,0.0,95,0.00,,---,0.00,VWS V14.00,2013-08-31 08:24:00,
2013-08-31 03:29:00,70.9,69.4,29.87,WNW,295,0.0,0.0,95,0.00,,---,0.00,VWS V14.00,2013-08-31 08:29:00,
2013-08-31 03:35:00,71.0,69.8,29.87,WNW,295,0.0,0.0,96,0.00,,---,0.00,VWS V14.00,2013-08-31 08:35:00,
2013-08-31 03:40:00,71.1,69.9,29.87,WNW,295,0.0,0.0,96,0.00,,---,0.00,VWS V14.00,2013-08-31 08:40:00,
2013-08-31 03:45:00,71.3,70.1,29.88,WNW,295,0.0,0.0,96,0.00,,---,0.00,VWS V14.00,2013-08-31 08:45:00,
2013-08-31 03:50:00,71.5,70.6,29.88,WNW,295,0.0,0.0,97,0.00,,---,0.00,VWS V14.00,2013-08-31 08:50:00,
2013-08-31 03:55:00,71.5,70.3,29.87,WNW,295,0.0,0.0,96,0.00,,---,0.00,VWS V14.00,2013-08-31 08:55:00,
2013-08-31 04:00:00,71.6,70.4,29.87,WNW,295,0.0,0.0,96,0.00,,---,0.00,VWS V14.00,2013-08-31 09:00:00,
2013-08-31 04:05:00,71.8,70.9,29.87,WNW,295,0.0,0.0,97,0.00,,---,0.00,VWS V14.00,2013-08-31 09:05:00,
2013-08-31 04:10:00,71.6,70.4,29.87,WNW,295,0.0,0.0,96,0.00,,---,0.00,VWS V14.00,2013-08-31 09:10:00,
2013-08-31 04:15:00,71.6,70.4,29.87,WNW,295,0.0,0.0,96,0.00,,---,0.00,VWS V14.00,2013-08-31 09:15:00,
2013-08-31 04:20:00,71.5,70.3,29.87,WNW,295,0.0,0.0,96,0.00,,---,0.00,VWS V14.00,2013-08-31 09:20:00,
2013-08-31 04:26:00,71.7,70.8,29.88,NNW,329,1.0,1.0,97,0.00,,---,0.00,VWS V14.00,2013-08-31 09:26:00,
2013-08-31 04:31:00,72.0,71.1,29.88,NNW,329,0.0,0.0,97,0.00,,---,0.00,VWS V14.00,2013-08-31 09:31:00,
2013-08-31 04:36:00,71.8,70.6,29.87,NNW,329,0.0,0.0,96,0.00,,---,0.00,VWS V14.00,2013-08-31 09:36:00,
2013-08-31 04:41:00,71.4,70.2,29.87,NNW,329,0.0,0.0,96,0.00,,---,0.00,VWS V14.00,2013-08-31 09:41:00,
2013-08-31 04:46:00,71.0,69.8,29.87,NNW,329,0.0,0.0,96,0.00,,---,0.00,VWS V14.00,2013-08-31 09:46:00,
2013-08-31 04:51:00,71.1,69.9,29.87,NNW,328,0.0,0.0,96,0.00,,---,0.00,VWS V14.00,2013-08-31 09:51:00,
2013-08-31 04:56:00,71.5,70.6,29.87,NNW,329,0.0,0.0,97,0.00,,---,0.00,VWS V14.00,2013-08-31 09:56:00,
2013-08-31 05:01:00,71.5,70.6,29.87,NNW,329,0.0,0.0,97,0.00,,---,0.00,VWS V14.00,2013-08-31 10:01:00,
2013-08-31 05:06:00,71.5,70.6,29.87,NNW,329,0.0,0.0,97,0.00,,---,0.00,VWS V14.00,2013-08-31 10:06:00,
2013-08-31 05:11:00,70.9,69.7,29.87,NNW,329,0.0,1.0,96,0.00,,---,0.00,VWS V14.00,2013-08-31 10:11:00,
2013-08-31 05:16:00,70.6,69.4,29.87,NNW,329,0.0,0.0,96,0.00,,---,0.00,VWS V14.00,2013-08-31 10:16:00,
2013-08-31 05:21:00,70.5,69.3,29.87,NNW,329,0.0,0.0,96,0.00,,---,0.00,VWS V14.00,2013-08-31 10:21:00,
2013-08-31 05:27:00,70.4,69.2,29.87,NNW,329,0.0,0.0,96,0.00,,---,0.00,VWS V14.00,2013-08-31 10:27:00,
2013-08-31 05:32:00,70.5,69.6,29.87,NNW,329,0.0,0.0,97,0.00,,---,0.00,VWS V14.00,2013-08-31 10:32:00,
2013-08-31 05:37:00,70.5,69.6,29.87,NNW,329,0.0,0.0,97,0.00,,---,0.00,VWS V14.00,2013-08-31 10:37:00,
2013-08-31 05:42:00,70.2,69.0,29.87,NNW,329,0.0,0.0,96,0.00,,---,0.00,VWS V14.00,2013-08-31 10:42:00,
2013-08-31 05:47:00,70.4,69.5,29.87,West,274,0.0,1.0,97,0.00,,---,0.00,VWS V14.00,2013-08-31 10:47:00,
2013-08-31 05:52:00,70.9,70.0,29.87,SW,219,1.0,1.0,97,0.00,,---,0.00,VWS V14.00,2013-08-31 10:52:00,
2013-08-31 05:57:00,71.8,70.9,29.87,SW,236,1.0,2.0,97,0.00,,---,0.00,VWS V14.00,2013-08-31 10:57:00,
2013-08-31 06:02:00,72.4,71.5,29.87,SW,232,1.0,2.0,97,0.00,,---,0.00,VWS V14.00,2013-08-31 11:02:00,
2013-08-31 06:07:00,72.7,71.8,29.88,SW,233,0.0,1.0,97,0.00,,---,0.00,VWS V14.00,2013-08-31 11:07:00,
2013-08-31 06:12:00,73.0,72.1,29.88,WSW,243,2.0,2.0,97,0.00,,---,0.00,VWS V14.00,2013-08-31 11:12:00,
2013-08-31 06:18:00,73.3,72.1,29.88,SW,233,1.0,4.0,96,0.00,,---,0.00,VWS V14.00,2013-08-31 11:18:00,
2013-08-31 06:23:00,73.5,72.0,29.88,SW,217,2.0,3.0,95,0.00,,---,0.00,VWS V14.00,2013-08-31 11:23:00,
2013-08-31 06:28:00,73.7,71.9,29.88,SW,229,1.0,2.0,94,0.00,,---,0.00,VWS V14.00,2013-08-31 11:28:00,
2013-08-31 06:33:00,73.8,72.0,29.88,SW,214,1.0,1.0,94,0.00,,---,0.00,VWS V14.00,2013-08-31 11:33:00,
2013-08-31 06:38:00,73.9,72.1,29.88,SSW,212,0.0,1.0,94,0.00,,---,0.00,VWS V14.00,2013-08-31 11:38:00,
2013-08-31 06:43:00,74.1,72.3,29.88,SSW,212,0.0,1.0,94,0.00,,---,0.00,VWS V14.00,2013-08-31 11:43:00,
2013-08-31 06:48:00,74.3,72.2,29.88,SSW,212,0.0,0.0,93,0.00,,---,0.00,VWS V14.00,2013-08-31 11:48:00,
2013-08-31 06:53:00,74.5,72.3,29.88,SSW,212,0.0,1.0,93,0.00,,---,0.00,VWS V14.00,2013-08-31 11:53:00,
2013-08-31 06:58:00,74.8,72.3,29.88,SSW,212,0.0,0.0,92,0.00,,---,0.00,VWS V14.00,2013-08-31 11:58:00,
2013-08-31 07:03:00,75.0,72.5,29.89,SSW,212,0.0,0.0,92,0.00,,---,0.00,VWS V14.00,2013-08-31 12:03:00,
2013-08-31 07:09:00,75.5,72.7,29.89,SSW,212,0.0,0.0,91,0.00,,---,0.00,VWS V14.00,2013-08-31 12:09:00,
2013-08-31 07:14:00,76.1,73.3,29.89,SSW,212,0.0,0.0,91,0.00,,---,0.00,VWS V14.00,2013-08-31 12:14:00,
2013-08-31 07:19:00,76.6,73.4,29.89,SW,214,0.0,1.0,90,0.00,,---,0.00,VWS V14.00,2013-08-31 12:19:00,
2013-08-31 07:24:00,76.8,73.3,29.89,North,355,1.0,1.0,89,0.00,,---,0.00,VWS V14.00,2013-08-31 12:24:00,
2013-08-31 07:29:00,76.8,73.3,29.89,North,354,0.0,1.0,89,0.00,,---,0.00,VWS V14.00,2013-08-31 12:29:00,
2013-08-31 07:34:00,77.3,73.5,29.89,North,354,0.0,1.0,88,0.00,,---,0.00,VWS V14.00,2013-08-31 12:34:00,
2013-08-31 07:39:00,78.1,73.9,29.90,North,354,0.0,0.0,87,0.00,,---,0.00,VWS V14.00,2013-08-31 12:39:00,
2013-08-31 07:44:00,78.6,74.1,29.90,North,354,0.0,1.0,86,0.00,,---,0.00,VWS V14.00,2013-08-31 12:44:00,
2013-08-31 07:49:00,78.8,74.6,29.90,SE,133,1.0,1.0,87,0.00,,---,0.00,VWS V14.00,2013-08-31 12:49:00,
2013-08-31 07:54:00,78.8,74.6,29.90,ESE,108,1.0,2.0,87,0.00,,---,0.00,VWS V14.00,2013-08-31 12:54:00,
2013-08-31 07:59:00,79.0,74.8,29.90,SE,134,1.0,1.0,87,0.00,,---,0.00,VWS V14.00,2013-08-31 12:59:00,
2013-08-31 08:04:00,78.8,74.6,29.90,SE,131,1.0,2.0,87,0.00,,---,0.00,VWS V14.00,2013-08-31 13:04:00,
2013-08-31 08:09:00,78.9,74.4,29.90,SSE,167,4.0,4.0,86,0.00,,---,0.00,VWS V14.00,2013-08-31 13:09:00,
2013-08-31 08:14:00,78.8,74.3,29.90,South,176,3.0,4.0,86,0.00,,---,0.00,VWS V14.00,2013-08-31 13:14:00,
2013-08-31 08:19:00,79.2,74.7,29.90,SE,126,3.0,3.0,86,0.00,,---,0.00,VWS V14.00,2013-08-31 13:19:00,
2013-08-31 08:24:00,79.7,74.8,29.90,SSE,148,4.0,5.0,85,0.00,,---,0.00,VWS V14.00,2013-08-31 13:24:00,
2013-08-31 08:30:00,80.1,74.5,29.89,SSE,154,5.0,6.0,83,0.00,,---,0.00,VWS V14.00,2013-08-31 13:30:00,
2013-08-31 08:35:00,80.9,75.3,29.89,SSE,152,4.0,4.0,83,0.00,,---,0.00,VWS V14.00,2013-08-31 13:35:00,
2013-08-31 08:40:00,81.8,75.4,29.89,SSE,160,3.0,5.0,81,0.00,,---,0.00,VWS V14.00,2013-08-31 13:40:00,
2013-08-31 08:45:00,82.3,75.1,29.90,SSW,212,4.0,7.0,79,0.00,,---,0.00,VWS V14.00,2013-08-31 13:45:00,
2013-08-31 08:50:00,82.4,74.9,29.89,SSW,200,6.0,10.0,78,0.00,,---,0.00,VWS V14.00,2013-08-31 13:50:00,
2013-08-31 08:55:00,82.3,75.1,29.90,SSW,198,4.0,4.0,79,0.00,,---,0.00,VWS V14.00,2013-08-31 13:55:00,
2013-08-31 09:00:00,83.0,75.4,29.90,SSW,208,4.0,9.0,78,0.00,,---,0.00,VWS V14.00,2013-08-31 14:00:00,
2013-08-31 09:05:00,83.1,75.5,29.90,SSW,208,6.0,10.0,78,0.00,,---,0.00,VWS V14.00,2013-08-31 14:05:00,
2013-08-31 09:11:00,82.7,74.8,29.90,SSW,197,7.0,9.0,77,0.00,,---,0.00,VWS V14.00,2013-08-31 14:11:00,
2013-08-31 09:16:00,82.8,74.9,29.90,WSW,239,7.0,10.0,77,0.00,,---,0.00,VWS V14.00,2013-08-31 14:16:00,
2013-08-31 09:21:00,83.0,75.4,29.90,SSW,205,7.0,9.0,78,0.00,,---,0.00,VWS V14.00,2013-08-31 14:21:00,
2013-08-31 09:26:00,83.0,75.8,29.90,West,277,1.0,5.0,79,0.00,,---,0.00,VWS V14.00,2013-08-31 14:26:00,
2013-08-31 09:31:00,83.2,75.6,29.90,SSW,195,4.0,8.0,78,0.00,,---,0.00,VWS V14.00,2013-08-31 14:31:00,
2013-08-31 09:36:00,83.3,75.3,29.90,SSW,204,6.0,9.0,77,0.00,,---,0.00,VWS V14.00,2013-08-31 14:36:00,
2013-08-31 09:41:00,83.4,75.4,29.90,WSW,255,4.0,6.0,77,0.00,,---,0.00,VWS V14.00,2013-08-31 14:41:00,
2013-08-31 09:46:00,84.3,75.9,29.90,SSW,200,5.0,5.0,76,0.00,,---,0.00,VWS V14.00,2013-08-31 14:46:00,
2013-08-31 09:52:00,84.6,75.8,29.90,SW,224,1.0,6.0,75,0.00,,---,0.00,VWS V14.00,2013-08-31 14:52:00,
2013-08-31 09:57:00,85.3,76.1,29.90,SW,215,9.0,9.0,74,0.00,,---,0.00,VWS V14.00,2013-08-31 14:57:00,
2013-08-31 10:02:00,86.5,76.8,29.90,SSW,194,8.0,9.0,73,0.00,,---,0.00,VWS V14.00,2013-08-31 15:02:00,
2013-08-31 10:07:00,87.3,76.3,29.89,West,267,4.0,10.0,70,0.00,,---,0.00,VWS V14.00,2013-08-31 15:07:00,
2013-08-31 10:12:00,87.9,76.5,29.89,SW,226,3.0,7.0,69,0.00,,---,0.00,VWS V14.00,2013-08-31 15:12:00,
2013-08-31 10:17:00,88.2,76.8,29.90,WSW,245,7.0,10.0,69,0.00,,---,0.00,VWS V14.00,2013-08-31 15:17:00,
2013-08-31 10:22:00,88.3,76.0,29.90,SSW,193,5.0,9.0,67,0.00,,---,0.00,VWS V14.00,2013-08-31 15:22:00,
2013-08-31 10:27:00,88.4,76.1,29.90,South,169,4.0,10.0,67,0.00,,---,0.00,VWS V14.00,2013-08-31 15:27:00,
2013-08-31 10:32:00,88.5,75.7,29.90,SW,226,7.0,11.0,66,0.00,,---,0.00,VWS V14.00,2013-08-31 15:32:00,
2013-08-31 10:37:00,88.6,75.3,29.90,West,260,5.0,10.0,65,0.00,,---,0.00,VWS V14.00,2013-08-31 15:37:00,
2013-08-31 10:42:00,88.7,75.4,29.90,WSW,245,5.0,8.0,65,0.00,,---,0.00,VWS V14.00,2013-08-31 15:42:00,
2013-08-31 10:48:00,88.9,75.2,29.90,SSW,200,6.0,10.0,64,0.00,,---,0.00,VWS V14.00,2013-08-31 15:48:00,
2013-08-31 10:53:00,89.2,76.4,29.90,West,263,2.0,8.0,66,0.00,,---,0.00,VWS V14.00,2013-08-31 15:53:00,
2013-08-31 10:58:00,89.5,75.7,29.90,SSW,212,5.0,9.0,64,0.00,,---,0.00,VWS V14.00,2013-08-31 15:58:00,
2013-08-31 11:03:00,89.5,75.2,29.89,SSW,204,6.0,7.0,63,0.00,,---,0.00,VWS V14.00,2013-08-31 16:03:00,
2013-08-31 11:08:00,89.6,76.3,29.89,WSW,240,3.0,7.0,65,0.00,,---,0.00,VWS V14.00,2013-08-31 16:08:00,
2013-08-31 11:13:00,90.4,77.0,29.89,SSW,201,10.0,10.0,65,0.00,,---,0.00,VWS V14.00,2013-08-31 16:13:00,
2013-08-31 11:18:00,90.7,77.3,29.89,WSW,252,5.0,8.0,65,0.00,,---,0.00,VWS V14.00,2013-08-31 16:18:00,
2013-08-31 11:23:00,91.1,76.3,29.89,SW,235,4.0,7.0,62,0.00,,---,0.00,VWS V14.00,2013-08-31 16:23:00,
2013-08-31 11:28:00,91.2,77.8,29.89,WSW,245,4.0,9.0,65,0.00,,---,0.00,VWS V14.00,2013-08-31 16:28:00,
2013-08-31 11:33:00,91.2,76.8,29.89,WSW,257,4.0,6.0,63,0.00,,---,0.00,VWS V14.00,2013-08-31 16:33:00,
2013-08-31 11:38:00,91.4,77.0,29.89,WSW,248,8.0,8.0,63,0.00,,---,0.00,VWS V14.00,2013-08-31 16:38:00,
2013-08-31 11:43:00,91.3,76.9,29.89,SW,229,2.0,7.0,63,0.00,,---,0.00,VWS V14.00,2013-08-31 16:43:00,
2013-08-31 11:49:00,91.9,76.5,29.88,SSW,198,2.0,8.0,61,0.00,,---,0.00,VWS V14.00,2013-08-31 16:49:00,
2013-08-31 11:54:00,92.0,76.1,29.88,WSW,255,6.0,8.0,60,0.00,,---,0.00,VWS V14.00,2013-08-31 16:54:00,
2013-08-31 11:59:00,92.2,76.8,29.88,WSW,241,5.0,7.0,61,0.00,,---,0.00,VWS V14.00,2013-08-31 16:59:00,
2013-08-31 12:04:00,92.8,78.4,29.88,SW,235,4.0,10.0,63,0.00,,---,0.00,VWS V14.00,2013-08-31 17:04:00,
2013-08-31 12:09:00,93.1,77.7,29.88,SSW,204,5.0,7.0,61,0.00,,---,0.00,VWS V14.00,2013-08-31 17:09:00,
2013-08-31 12:14:00,93.1,77.2,29.88,SSW,207,5.0,8.0,60,0.00,,---,0.00,VWS V14.00,2013-08-31 17:14:00,
2013-08-31 12:19:00,92.9,76.5,29.88,WSW,243,3.0,10.0,59,0.00,,---,0.00,VWS V14.00,2013-08-31 17:19:00,
2013-08-31 12:24:00,92.9,75.4,29.87,South,186,5.0,11.0,57,0.00,,---,0.00,VWS V14.00,2013-08-31 17:24:00,
2013-08-31 12:29:00,92.5,77.6,29.87,WSW,257,3.0,10.0,62,0.00,,---,0.00,VWS V14.00,2013-08-31 17:29:00,
2013-08-31 12:34:00,92.9,76.5,29.87,WSW,248,4.0,8.0,59,0.00,,---,0.00,VWS V14.00,2013-08-31 17:34:00,
2013-08-31 12:39:00,93.1,76.7,29.87,SSE,167,9.0,9.0,59,0.00,,---,0.00,VWS V14.00,2013-08-31 17:39:00,
2013-08-31 12:44:00,92.9,78.0,29.87,WSW,257,2.0,11.0,62,0.00,,---,0.00,VWS V14.00,2013-08-31 17:44:00,
2013-08-31 12:49:00,93.2,76.8,29.86,WSW,238,2.0,10.0,59,0.00,,---,0.00,VWS V14.00,2013-08-31 17:49:00,
2013-08-31 12:54:00,92.5,77.1,29.87,SSW,200,10.0,11.0,61,0.00,,---,0.00,VWS V14.00,2013-08-31 17:54:00,
2013-08-31 12:59:00,93.0,77.6,29.86,SSW,207,6.0,12.0,61,0.00,,---,0.00,VWS V14.00,2013-08-31 17:59:00,
2013-08-31 13:04:00,93.4,78.4,29.86,WSW,240,2.0,10.0,62,0.00,,---,0.00,VWS V14.00,2013-08-31 18:04:00,
2013-08-31 13:09:00,93.8,77.3,29.86,SW,217,6.0,10.0,59,0.00,,---,0.00,VWS V14.00,2013-08-31 18:09:00,
2013-08-31 13:14:00,94.1,77.1,29.86,SSW,203,4.0,5.0,58,0.00,,---,0.00,VWS V14.00,2013-08-31 18:14:00,
2013-08-31 13:19:00,93.7,77.7,29.86,WSW,245,2.0,3.0,60,0.00,,---,0.00,VWS V14.00,2013-08-31 18:19:00,
2013-08-31 13:24:00,92.9,77.5,29.86,SW,226,7.0,10.0,61,0.00,,---,0.00,VWS V14.00,2013-08-31 18:24:00,
2013-08-31 13:30:00,92.3,75.4,29.85,SW,236,3.0,4.0,58,0.00,,---,0.00,VWS V14.00,2013-08-31 18:30:00,
2013-08-31 13:35:00,93.2,76.8,29.85,WSW,253,8.0,9.0,59,0.00,,---,0.00,VWS V14.00,2013-08-31 18:35:00,
2013-08-31 13:40:00,93.6,76.1,29.85,WSW,245,7.0,7.0,57,0.00,,---,0.00,VWS V14.00,2013-08-31 18:40:00,
2013-08-31 13:45:00,93.7,76.7,29.85,SW,228,7.0,10.0,58,0.00,,---,0.00,VWS V14.00,2013-08-31 18:45:00,
2013-08-31 13:50:00,93.2,77.8,29.85,WSW,240,6.0,6.0,61,0.00,,---,0.00,VWS V14.00,2013-08-31 18:50:00,
2013-08-31 13:55:00,94.0,78.5,29.85,WSW,246,7.0,11.0,61,0.00,,---,0.00,VWS V14.00,2013-08-31 18:55:00,
2013-08-31 14:00:00,93.6,78.1,29.85,SSW,195,5.0,10.0,61,0.00,,---,0.00,VWS V14.00,2013-08-31 19:00:00,
2013-08-31 14:05:00,92.6,76.7,29.85,SW,236,6.0,9.0,60,0.00,,---,0.00,VWS V14.00,2013-08-31 19:05:00,
2013-08-31 14:10:00,93.2,77.3,29.84,WSW,255,5.0,8.0,60,0.00,,---,0.00,VWS V14.00,2013-08-31 19:10:00,
2013-08-31 14:15:00,93.9,76.9,29.84,WSW,246,7.0,7.0,58,0.00,,---,0.00,VWS V14.00,2013-08-31 19:15:00,
2013-08-31 14:20:00,94.2,77.7,29.84,SW,233,8.0,8.0,59,0.00,,---,0.00,VWS V14.00,2013-08-31 19:20:00,
2013-08-31 14:26:00,94.0,77.5,29.84,SW,236,8.0,11.0,59,0.00,,---,0.00,VWS V14.00,2013-08-31 19:26:00,
2013-08-31 14:31:00,93.6,77.1,29.84,WSW,252,6.0,10.0,59,0.00,,---,0.00,VWS V14.00,2013-08-31 19:31:00,
2013-08-31 14:36:00,93.6,76.6,29.84,WSW,242,5.0,14.0,58,0.00,,---,0.00,VWS V14.00,2013-08-31 19:36:00,
2013-08-31 14:41:00,93.6,76.1,29.83,SSW,212,6.0,8.0,57,0.00,,---,0.00,VWS V14.00,2013-08-31 19:41:00,
2013-08-31 14:46:00,93.4,76.4,29.83,SSW,210,11.0,13.0,58,0.00,,---,0.00,VWS V14.00,2013-08-31 19:46:00,
2013-08-31 14:51:00,92.7,77.3,29.83,SW,229,5.0,8.0,61,0.00,,---,0.00,VWS V14.00,2013-08-31 19:51:00,
2013-08-31 14:56:00,93.4,76.4,29.83,SW,222,7.0,11.0,58,0.00,,---,0.00,VWS V14.00,2013-08-31 19:56:00,
2013-08-31 15:01:00,93.8,77.3,29.83,South,191,7.0,8.0,59,0.00,,---,0.00,VWS V14.00,2013-08-31 20:01:00,
2013-08-31 15:06:00,93.5,76.0,29.82,West,277,3.0,10.0,57,0.00,,---,0.00,VWS V14.00,2013-08-31 20:06:00,
2013-08-31 15:11:00,93.4,77.4,29.82,SW,231,7.0,11.0,60,0.00,,---,0.00,VWS V14.00,2013-08-31 20:11:00,
2013-08-31 15:16:00,93.2,76.8,29.82,SSW,195,8.0,14.0,59,0.00,,---,0.00,VWS V14.00,2013-08-31 20:16:00,
2013-08-31 15:22:00,92.8,76.9,29.82,SW,226,6.0,8.0,60,0.00,,---,0.00,VWS V14.00,2013-08-31 20:22:00,
2013-08-31 15:27:00,92.7,75.8,29.82,WSW,246,5.0,14.0,58,0.00,,---,0.00,VWS V14.00,2013-08-31 20:27:00,
2013-08-31 15:32:00,93.1,76.1,29.82,SSW,210,6.0,11.0,58,0.00,,---,0.00,VWS V14.00,2013-08-31 20:32:00,
2013-08-31 15:37:00,93.3,76.8,29.81,WSW,243,6.0,13.0,59,0.00,,---,0.00,VWS V14.00,2013-08-31 20:37:00,
2013-08-31 15:42:00,93.2,76.2,29.81,West,267,5.0,11.0,58,0.00,,---,0.00,VWS V14.00,2013-08-31 20:42:00,
2013-08-31 15:47:00,93.1,76.1,29.81,SSW,204,11.0,15.0,58,0.00,,---,0.00,VWS V14.00,2013-08-31 20:47:00,
2013-08-31 15:52:00,92.8,76.4,29.81,SSW,212,7.0,12.0,59,0.00,,---,0.00,VWS V14.00,2013-08-31 20:52:00,
2013-08-31 15:57:00,92.7,76.3,29.81,South,188,8.0,13.0,59,0.00,,---,0.00,VWS V14.00,2013-08-31 20:57:00,
2013-08-31 16:02:00,92.4,75.0,29.81,SSW,204,9.0,14.0,57,0.00,,---,0.00,VWS V14.00,2013-08-31 21:02:00,
2013-08-31 16:07:00,92.3,75.9,29.80,WSW,238,4.0,11.0,59,0.00,,---,0.00,VWS V14.00,2013-08-31 21:07:00,
2013-08-31 16:12:00,93.0,77.1,29.80,SW,227,4.0,8.0,60,0.00,,---,0.00,VWS V14.00,2013-08-31 21:12:00,
2013-08-31 16:17:00,92.7,76.3,29.80,SW,221,7.0,12.0,59,0.00,,---,0.00,VWS V14.00,2013-08-31 21:17:00,
2013-08-31 16:23:00,92.7,76.3,29.80,SW,233,7.0,12.0,59,0.00,,---,0.00,VWS V14.00,2013-08-31 21:23:00,
2013-08-31 16:28:00,92.6,75.2,29.80,SW,236,7.0,11.0,57,0.00,,---,0.00,VWS V14.00,2013-08-31 21:28:00,
2013-08-31 16:33:00,92.9,75.9,29.80,West,262,8.0,8.0,58,0.00,,---,0.00,VWS V14.00,2013-08-31 21:33:00,
2013-08-31 16:38:00,92.6,75.7,29.79,SW,215,10.0,11.0,58,0.00,,---,0.00,VWS V14.00,2013-08-31 21:38:00,
2013-08-31 16:43:00,92.5,75.6,29.80,WSW,240,8.0,11.0,58,0.00,,---,0.00,VWS V14.00,2013-08-31 21:43:00,
2013-08-31 16:48:00,92.4,75.5,29.79,West,262,6.0,12.0,58,0.00,,---,0.00,VWS V14.00,2013-08-31 21:48:00,
2013-08-31 16:53:00,92.2,75.3,29.79,SSW,210,8.0,10.0,58,0.00,,---,0.00,VWS V14.00,2013-08-31 21:53:00,
2013-08-31 16:58:00,92.1,75.2,29.79,SSW,194,10.0,13.0,58,0.00,,---,0.00,VWS V14.00,2013-08-31 21:58:00,
2013-08-31 17:03:00,91.8,75.9,29.79,SSW,207,6.0,14.0,60,0.00,,---,0.00,VWS V14.00,2013-08-31 22:03:00,
2013-08-31 17:08:00,91.2,76.4,29.79,SW,231,6.0,15.0,62,0.00,,---,0.00,VWS V14.00,2013-08-31 22:08:00,
2013-08-31 17:14:00,91.4,75.1,29.78,SW,226,8.0,12.0,59,0.00,,---,0.00,VWS V14.00,2013-08-31 22:14:00,
2013-08-31 17:19:00,91.1,74.8,29.78,SW,228,9.0,15.0,59,0.00,,---,0.00,VWS V14.00,2013-08-31 22:19:00,
2013-08-31 17:24:00,91.2,75.9,29.78,West,278,8.0,9.0,61,0.00,,---,0.00,VWS V14.00,2013-08-31 22:24:00,
2013-08-31 17:29:00,91.1,76.8,29.78,SSW,211,8.0,14.0,63,0.00,,---,0.00,VWS V14.00,2013-08-31 22:29:00,
2013-08-31 17:34:00,90.8,76.0,29.78,SSW,198,10.0,11.0,62,0.00,,---,0.00,VWS V14.00,2013-08-31 22:34:00,
2013-08-31 17:39:00,90.5,75.2,29.78,SSW,202,12.0,18.0,61,0.00,,---,0.00,VWS V14.00,2013-08-31 22:39:00,
2013-08-31 17:44:00,90.3,75.5,29.78,SSW,204,6.0,12.0,62,0.00,,---,0.00,VWS V14.00,2013-08-31 22:44:00,
2013-08-31 17:49:00,90.0,75.2,29.78,SW,225,4.0,12.0,62,0.00,,---,0.00,VWS V14.00,2013-08-31 22:49:00,
2013-08-31 17:54:00,89.7,75.0,29.79,SSW,201,7.0,11.0,62,0.00,,---,0.00,VWS V14.00,2013-08-31 22:54:00,
2013-08-31 17:59:00,89.6,76.3,29.79,SSW,212,5.0,9.0,65,0.00,,---,0.00,VWS V14.00,2013-08-31 22:59:00,
2013-08-31 18:04:00,89.4,75.6,29.79,South,191,4.0,5.0,64,0.00,,---,0.00,VWS V14.00,2013-08-31 23:04:00,
2013-08-31 18:09:00,89.3,75.5,29.79,WSW,239,6.0,7.0,64,0.00,,---,0.00,VWS V14.00,2013-08-31 23:09:00,
2013-08-31 18:14:00,89.1,75.8,29.79,SSW,208,4.0,5.0,65,0.00,,---,0.00,VWS V14.00,2013-08-31 23:14:00,
2013-08-31 18:19:00,89.1,75.8,29.79,SSW,200,3.0,4.0,65,0.00,,---,0.00,VWS V14.00,2013-08-31 23:19:00,
2013-08-31 18:24:00,88.9,76.1,29.79,SW,217,6.0,6.0,66,0.00,,---,0.00,VWS V14.00,2013-08-31 23:24:00,
2013-08-31 18:29:00,88.7,76.3,29.79,South,172,3.0,5.0,67,0.00,,---,0.00,VWS V14.00,2013-08-31 23:29:00,
2013-08-31 18:35:00,88.3,76.0,29.78,SW,215,3.0,5.0,67,0.00,,---,0.00,VWS V14.00,2013-08-31 23:35:00,
2013-08-31 18:40:00,88.1,76.2,29.79,SSW,205,5.0,6.0,68,0.00,,---,0.00,VWS V14.00,2013-08-31 23:40:00,
2013-08-31 18:45:00,87.7,75.8,29.79,SSW,207,4.0,6.0,68,0.00,,---,0.00,VWS V14.00,2013-08-31 23:45:00,
2013-08-31 18:50:00,87.3,76.3,29.79,SW,225,4.0,4.0,70,0.00,,---,0.00,VWS V14.00,2013-08-31 23:50:00,
2013-08-31 18:55:00,87.0,76.0,29.79,SSW,201,2.0,4.0,70,0.00,,---,0.00,VWS V14.00,2013-08-31 23:55:00,
2013-08-31 19:00:00,86.7,75.8,29.79,SSW,207,3.0,4.0,70,0.00,,---,0.00,VWS V14.00,2013-09-01 00:00:00,
2013-08-31 19:05:00,86.4,75.9,29.79,SSW,207,4.0,4.0,71,0.00,,---,0.00,VWS V14.00,2013-09-01 00:05:00,
2013-08-31 19:10:00,86.1,76.0,29.79,SSW,207,2.0,2.0,72,0.00,,---,0.00,VWS V14.00,2013-09-01 00:10:00,
2013-08-31 19:15:00,85.7,75.6,29.79,South,184,2.0,3.0,72,0.00,,---,0.00,VWS V14.00,2013-09-01 00:15:00,
2013-08-31 19:20:00,85.5,75.9,29.79,SW,222,1.0,3.0,73,0.00,,---,0.00,VWS V14.00,2013-09-01 00:20:00,
2013-08-31 19:25:00,85.2,75.6,29.79,South,187,3.0,3.0,73,0.00,,---,0.00,VWS V14.00,2013-09-01 00:25:00,
2013-08-31 19:31:00,85.1,75.5,29.80,SW,229,4.0,4.0,73,0.00,,---,0.00,VWS V14.00,2013-09-01 00:31:00,
2013-08-31 19:36:00,84.7,75.5,29.80,SW,218,1.0,3.0,74,0.00,,---,0.00,VWS V14.00,2013-09-01 00:36:00,
2013-08-31 19:41:00,84.4,75.2,29.80,SSW,203,2.0,2.0,74,0.00,,---,0.00,VWS V14.00,2013-09-01 00:41:00,
2013-08-31 19:46:00,84.2,75.4,29.81,SSW,203,0.0,2.0,75,0.00,,---,0.00,VWS V14.00,2013-09-01 00:46:00,
2013-08-31 19:51:00,83.9,75.1,29.81,SSW,210,0.0,1.0,75,0.00,,---,0.00,VWS V14.00,2013-09-01 00:51:00,
2013-08-31 19:56:00,83.5,75.1,29.81,SSW,210,0.0,0.0,76,0.00,,---,0.00,VWS V14.00,2013-09-01 00:56:00,
2013-08-31 20:01:00,82.9,74.9,29.81,SSW,210,0.0,0.0,77,0.00,,---,0.00,VWS V14.00,2013-09-01 01:01:00,
2013-08-31 20:06:00,82.3,75.1,29.81,SSW,210,0.0,0.0,79,0.00,,---,0.00,VWS V14.00,2013-09-01 01:06:00,
2013-08-31 20:11:00,82.0,74.8,29.82,SSW,210,0.0,0.0,79,0.00,,---,0.00,VWS V14.00,2013-09-01 01:11:00,
2013-08-31 20:16:00,81.8,75.0,29.82,SSW,210,0.0,1.0,80,0.00,,---,0.00,VWS V14.00,2013-09-01 01:16:00,
2013-08-31 20:21:00,81.4,75.0,29.82,SSW,210,0.0,1.0,81,0.00,,---,0.00,VWS V14.00,2013-09-01 01:21:00,
2013-08-31 20:27:00,81.2,74.8,29.82,SSE,156,0.0,1.0,81,0.00,,---,0.00,VWS V14.00,2013-09-01 01:27:00,
2013-08-31 20:32:00,81.6,75.2,29.82,SSE,156,0.0,0.0,81,0.00,,---,0.00,VWS V14.00,2013-09-01 01:32:00,
2013-08-31 20:37:00,81.7,75.3,29.82,SSE,149,0.0,0.0,81,0.00,,---,0.00,VWS V14.00,2013-09-01 01:37:00,
2013-08-31 20:42:00,81.7,75.3,29.82,SSE,150,0.0,0.0,81,0.00,,---,0.00,VWS V14.00,2013-09-01 01:42:00,
2013-08-31 20:47:00,81.5,75.1,29.82,SSE,150,0.0,0.0,81,0.00,,---,0.00,VWS V14.00,2013-09-01 01:47:00,
2013-08-31 20:52:00,81.0,75.0,29.82,SSE,150,0.0,0.0,82,0.00,,---,0.00,VWS V14.00,2013-09-01 01:52:00,
2013-08-31 20:57:00,80.7,75.1,29.82,SSE,149,0.0,0.0,83,0.00,,---,0.00,VWS V14.00,2013-09-01 01:57:00,
2013-08-31 21:02:00,80.3,74.7,29.82,SSE,150,0.0,0.0,83,0.00,,---,0.00,VWS V14.00,2013-09-01 02:02:00,
2013-08-31 21:07:00,80.2,74.6,29.83,SSE,150,0.0,0.0,83,0.00,,---,0.00,VWS V14.00,2013-09-01 02:07:00,
2013-08-31 21:12:00,79.9,74.6,29.82,SSE,149,0.0,0.0,84,0.00,,---,0.00,VWS V14.00,2013-09-01 02:12:00,
2013-08-31 21:18:00,79.7,74.8,29.82,SSE,150,0.0,1.0,85,0.00,,---,0.00,VWS V14.00,2013-09-01 02:18:00,
2013-08-31 21:23:00,79.6,74.7,29.82,SE,125,1.0,1.0,85,0.00,,---,0.00,VWS V14.00,2013-09-01 02:23:00,
2013-08-31 21:28:00,79.3,74.4,29.82,SE,126,1.0,1.0,85,0.00,,---,0.00,VWS V14.00,2013-09-01 02:28:00,
2013-08-31 21:33:00,79.0,74.5,29.82,SE,135,1.0,2.0,86,0.00,,---,0.00,VWS V14.00,2013-09-01 02:33:00,
2013-08-31 21:38:00,78.9,74.7,29.82,SE,124,2.0,4.0,87,0.00,,---,0.00,VWS V14.00,2013-09-01 02:38:00,
2013-08-31 21:43:00,79.0,74.8,29.82,SE,127,1.0,2.0,87,0.00,,---,0.00,VWS V14.00,2013-09-01 02:43:00,
2013-08-31 21:48:00,79.0,74.8,29.82,SE,131,2.0,2.0,87,0.00,,---,0.00,VWS V14.00,2013-09-01 02:48:00,
2013-08-31 21:53:00,79.2,75.0,29.83,SE,124,2.0,3.0,87,0.00,,---,0.00,VWS V14.00,2013-09-01 02:53:00,
2013-08-31 21:58:00,79.4,74.8,29.83,ESE,113,1.0,3.0,86,0.00,,---,0.00,VWS V14.00,2013-09-01 02:58:00,
2013-08-31 22:03:00,79.5,74.9,29.83,ESE,122,2.0,2.0,86,0.00,,---,0.00,VWS V14.00,2013-09-01 03:03:00,
2013-08-31 22:08:00,79.4,74.8,29.83,SE,131,0.0,3.0,86,0.00,,---,0.00,VWS V14.00,2013-09-01 03:08:00,
2013-08-31 22:14:00,79.2,74.7,29.83,SE,143,1.0,2.0,86,0.00,,---,0.00,VWS V14.00,2013-09-01 03:14:00,
2013-08-31 22:19:00,78.7,74.5,29.83,SE,135,1.0,2.0,87,0.00,,---,0.00,VWS V14.00,2013-09-01 03:19:00,
2013-08-31 22:24:00,78.6,74.4,29.83,SE,138,1.0,3.0,87,0.00,,---,0.00,VWS V14.00,2013-09-01 03:24:00,
2013-08-31 22:29:00,78.7,74.5,29.82,SE,129,2.0,2.0,87,0.00,,---,0.00,VWS V14.00,2013-09-01 03:29:00,
2013-08-31 22:34:00,78.9,74.7,29.82,SE,126,3.0,5.0,87,0.00,,---,0.00,VWS V14.00,2013-09-01 03:34:00,
2013-08-31 22:39:00,78.9,74.7,29.82,SE,132,3.0,5.0,87,0.00,,---,0.00,VWS V14.00,2013-09-01 03:39:00,
2013-08-31 22:44:00,78.9,74.7,29.82,SSE,154,2.0,4.0,87,0.00,,---,0.00,VWS V14.00,2013-09-01 03:44:00,
2013-08-31 22:49:00,78.9,74.7,29.82,SE,141,2.0,3.0,87,0.00,,---,0.00,VWS V14.00,2013-09-01 03:49:00,
2013-08-31 22:54:00,79.0,74.8,29.82,SSE,164,4.0,4.0,87,0.00,,---,0.00,VWS V14.00,2013-09-01 03:54:00,
2013-08-31 22:59:00,79.1,74.6,29.82,South,173,2.0,4.0,86,0.00,,---,0.00,VWS V14.00,2013-09-01 03:59:00,
2013-08-31 23:01:00,79.1,74.6,29.82,SSW,193,3.0,4.0,86,0.00,,---,0.00,VWS V14.00,2013-09-01 04:01:00,
2013-08-31 23:02:00,79.2,74.7,29.82,SSE,148,2.0,4.0,86,0.00,,---,0.00,VWS V14.00,2013-09-01 04:02:00,
2013-08-31 23:04:00,79.2,74.7,29.82,SSE,165,5.0,5.0,86,0.00,,---,0.00,VWS V14.00,2013-09-01 04:04:00,
2013-08-31 23:05:00,79.3,74.8,29.82,SE,131,1.0,5.0,86,0.00,,---,0.00,VWS V14.00,2013-09-01 04:05:00,
2013-08-31 23:20:00,79.6,74.7,29.82,SSE,158,3.0,6.0,85,0.00,,---,0.00,VWS V14.00,2013-09-01 04:20:00,
2013-08-31 23:23:00,79.6,74.7,29.81,SSW,197,2.0,5.0,85,0.00,,---,0.00,VWS V14.00,2013-09-01 04:23:00,
2013-08-31 23:29:00,79.6,74.3,29.81,South,174,2.0,5.0,84,0.00,,---,0.00,VWS V14.00,2013-09-01 04:29:00,
2013-08-31 23:34:00,79.4,74.5,29.81,SSE,148,1.0,2.0,85,0.00,,---,0.00,VWS V14.00,2013-09-01 04:34:00,
2013-08-31 23:39:00,79.3,74.4,29.81,SE,141,2.0,3.0,85,0.00,,---,0.00,VWS V14.00,2013-09-01 04:39:00,
2013-08-31 23:44:00,79.1,74.2,29.81,SE,134,0.0,2.0,85,0.00,,---,0.00,VWS V14.00,2013-09-01 04:44:00,
2013-08-31 23:49:00,78.8,73.9,29.81,SE,142,1.0,2.0,85,0.00,,---,0.00,VWS V14.00,2013-09-01 04:49:00,
2013-08-31 23:54:00,78.7,74.2,29.81,SE,127,2.0,3.0,86,0.00,,---,0.00,VWS V14.00,2013-09-01 04:54:00,
2013-08-31 23:59:00,78.6,74.1,29.81,East,97,1.0,3.0,86,0.00,,---,0.00,VWS V14.00,2013-09-01 04:59:00,